A- A+ FrançaisEnglishEspañol中国

Services sur Internet Soldes sur Internet Des idées de cadeaux Météo Météo aéro

La météo à : Autours de vous Tarbes-Lourdes-PyrénéesToulouse-BlagnacBasle-Mulhouse Morlaix-Ploujean

manche à air

La météo aéronautique pour les pilotes, la préparation du vol avec les METAR (METeorological Aerodrome Report, message d'observation des conditions météorologiques pour l'aviation) et Les TAF (Terminal Aerodrome Forecast : message de prévision à court terme des conditions météorologiques pour l'aviation). Et les autres ressources comme les VAC (Visual Approch Chart) et les NOTAM (Notice To Airman) pour préprer les vols.

Aéroport Middle Wallop (Royaume-Uni) / OACI EGVP

L'altitude de l'aéroport Middle Wallop est de 91 m = 299 ft. Il est situé à proximité de Middle Wallop (Royaume-Uni). La météo générale à 5 jours est disponible pour Abbotts Ann situé à 6.2 km.

METAR de l'aéroport Middle Wallop - EGVP

EGVP 181650Z 33003KT 9999 FEW024 06/03 Q1017 NOSIG RMK BLU BLU

Décodage du METAR de l'aéroport Middle Wallop (GB)

METAR émis par EGVP le lundi 18 novembre 2019 à 16:50 heure TU. Attention ce METAR est obsolète car il a été émis il y a 4 heure et 49 minutes.

La visibilité est de supérieure à 10 km = supérieure à 6.2 sm.

La température est de 6°C = 43 °F et le point rosée est de 3°C = 37 °F . Ce qui correspond à 81% d'humidité relative.

Le QNH est de 1017 hPa = 30.03 inHg

Vent de 3 kt = 6 km/h, orienté à 330°.

Nuages : Quelques nuages à 2400 ft = 730 mètres.

Aucun changement significatif dans les deux heures à venir remarques BLU BLU

TAF de l'aéroport Middle Wallop - EGVP

EGVP 181355Z 1815/1823 34005KT 9999 FEW024 PROB30 1820/1821 7000 BR BECMG 1821/1823 3000 BR

EGVP 181355Z 1815/1823 34005KT 9999 quelques nuages à 024 probabilité de 30% d'avoir 1820/1821 7000 brume devenant 1821/1823 3000 brume

Aéroport à proximité de Middle Wallop

Météo générale à 5 jours à Abbotts Ann (6.2 km)Aéroport Thruxton (8 km)Aéroport Boscombe Down (13 km)Aéroport Old Sarum (16 km)Aéroport Netheravon (18 km)Aéroport Popham (24 km)Aéroport Southampton (26 km)

Vue aérienne de l'aéroport Middle Wallop

NOTAM de l'aéroport Middle Wallop

Les NOTAM sont fournis sans aucune garantie de leur actualité. Le pilote est le seul responsable de la vérification de sa validité avant de l'utiliser opérationnellement pour préparer un vol ou l'utiliser lors de sa navigation.

Pas de NOTAM

Sources des données